sensor_id;sensor_type;location;lat;lon;timestamp;pressure;altitude;pressure_sealevel;temperature;humidity
65553;BME280;52465;51.560;14.368;2023-03-14T00:00:52;98246.28;;;10.05;69.44
65553;BME280;52465;51.560;14.368;2023-03-14T00:03:17;98256.31;;;10.15;69.68
65553;BME280;52465;51.560;14.368;2023-03-14T00:05:43;98230.38;;;10.07;69.92
65553;BME280;52465;51.560;14.368;2023-03-14T00:08:08;98241.44;;;10.22;69.85
65553;BME280;52465;51.560;14.368;2023-03-14T00:10:35;98215.91;;;10.18;69.63
65553;BME280;52465;51.560;14.368;2023-03-14T00:13:01;98188.53;;;10.20;69.69
65553;BME280;52465;51.560;14.368;2023-03-14T00:15:26;98138.09;;;10.00;69.68
65553;BME280;52465;51.560;14.368;2023-03-14T00:17:52;98099.28;;;9.97;69.57
65553;BME280;52465;51.560;14.368;2023-03-14T00:20:17;98106.66;;;10.20;69.32
65553;BME280;52465;51.560;14.368;2023-03-14T00:22:43;98109.31;;;10.13;69.62
65553;BME280;52465;51.560;14.368;2023-03-14T00:25:09;98107.91;;;10.17;69.83
65553;BME280;52465;51.560;14.368;2023-03-14T00:27:35;98085.81;;;10.06;69.45
65553;BME280;52465;51.560;14.368;2023-03-14T00:30:02;98093.22;;;10.16;69.65
65553;BME280;52465;51.560;14.368;2023-03-14T00:32:28;98060.91;;;9.91;69.98
65553;BME280;52465;51.560;14.368;2023-03-14T00:34:53;98103.25;;;10.19;69.74
65553;BME280;52465;51.560;14.368;2023-03-14T00:37:19;98114.50;;;10.20;70.02
65553;BME280;52465;51.560;14.368;2023-03-14T00:39:47;98093.22;;;10.16;69.49
65553;BME280;52465;51.560;14.368;2023-03-14T00:42:13;98095.44;;;10.13;69.42
65553;BME280;52465;51.560;14.368;2023-03-14T00:44:39;98091.44;;;10.03;69.61
65553;BME280;52465;51.560;14.368;2023-03-14T00:47:04;98109.13;;;10.08;69.62
65553;BME280;52465;51.560;14.368;2023-03-14T00:49:30;98126.41;;;10.16;69.52
65553;BME280;52465;51.560;14.368;2023-03-14T00:51:55;98118.56;;;10.09;69.57
65553;BME280;52465;51.560;14.368;2023-03-14T00:54:21;98107.13;;;10.03;69.49
65553;BME280;52465;51.560;14.368;2023-03-14T00:56:46;98127.59;;;10.20;69.53
65553;BME280;52465;51.560;14.368;2023-03-14T00:59:12;98143.69;;;10.17;69.92
65553;BME280;52465;51.560;14.368;2023-03-14T01:01:39;98128.03;;;10.10;69.65
65553;BME280;52465;51.560;14.368;2023-03-14T01:04:04;98139.69;;;10.07;69.85
65553;BME280;52465;51.560;14.368;2023-03-14T01:06:30;98157.34;;;10.19;69.50
65553;BME280;52465;51.560;14.368;2023-03-14T01:08:56;98144.28;;;10.19;69.46
65553;BME280;52465;51.560;14.368;2023-03-14T01:11:27;98139.88;;;10.13;69.60
65553;BME280;52465;51.560;14.368;2023-03-14T01:13:54;98136.44;;;10.19;69.67
65553;BME280;52465;51.560;14.368;2023-03-14T01:16:21;98141.47;;;10.14;69.72
65553;BME280;52465;51.560;14.368;2023-03-14T01:18:47;98129.41;;;10.13;69.53
65553;BME280;52465;51.560;14.368;2023-03-14T01:21:16;98120.81;;;9.99;69.70
65553;BME280;52465;51.560;14.368;2023-03-14T01:23:43;98143.28;;;10.13;69.55
65553;BME280;52465;51.560;14.368;2023-03-14T01:26:10;98150.53;;;10.18;69.58
65553;BME280;52465;51.560;14.368;2023-03-14T01:28:36;98097.50;;;9.91;69.40
65553;BME280;52465;51.560;14.368;2023-03-14T01:31:03;98138.25;;;10.18;69.60
65553;BME280;52465;51.560;14.368;2023-03-14T01:33:29;98133.25;;;10.17;69.36
65553;BME280;52465;51.560;14.368;2023-03-14T01:35:54;98134.84;;;10.18;69.57
65553;BME280;52465;51.560;14.368;2023-03-14T01:38:20;98120.16;;;10.17;69.88
65553;BME280;52465;51.560;14.368;2023-03-14T01:40:45;98114.34;;;10.08;69.66
65553;BME280;52465;51.560;14.368;2023-03-14T01:43:18;98115.94;;;10.09;69.79
65553;BME280;52465;51.560;14.368;2023-03-14T01:54:13;98106.47;;;10.15;69.36
65553;BME280;52465;51.560;14.368;2023-03-14T01:56:41;98060.50;;;9.87;69.70
65553;BME280;52465;51.560;14.368;2023-03-14T01:59:10;98090.81;;;10.08;69.57
65553;BME280;52465;51.560;14.368;2023-03-14T02:01:36;98102.88;;;10.16;69.67
65553;BME280;52465;51.560;14.368;2023-03-14T02:04:06;98080.59;;;10.00;69.36
65553;BME280;52465;51.560;14.368;2023-03-14T02:06:50;98097.66;;;10.09;69.40
65553;BME280;52465;51.560;14.368;2023-03-14T02:09:18;98104.88;;;10.14;69.50
65553;BME280;52465;51.560;14.368;2023-03-14T02:11:44;98102.69;;;10.11;69.61
65553;BME280;52465;51.560;14.368;2023-03-14T02:14:17;98039.25;;;9.77;69.52
65553;BME280;52465;51.560;14.368;2023-03-14T02:16:50;98067.16;;;9.90;69.57
65553;BME280;52465;51.560;14.368;2023-03-14T02:19:18;98092.59;;;10.14;69.48
65553;BME280;52465;51.560;14.368;2023-03-14T02:21:54;98088.00;;;10.16;69.50
65553;BME280;52465;51.560;14.368;2023-03-14T02:24:38;98078.72;;;10.14;69.62
65553;BME280;52465;51.560;14.368;2023-03-14T02:27:11;98080.34;;;10.15;69.49
65553;BME280;52465;51.560;14.368;2023-03-14T02:30:00;98045.63;;;9.94;69.67
65553;BME280;52465;51.560;14.368;2023-03-14T02:32:29;98074.72;;;10.11;69.46
65553;BME280;52465;51.560;14.368;2023-03-14T02:34:57;98061.03;;;10.09;69.45
65553;BME280;52465;51.560;14.368;2023-03-14T02:37:30;98080.53;;;10.13;69.30
65553;BME280;52465;51.560;14.368;2023-03-14T02:40:02;98073.50;;;10.14;69.75
65553;BME280;52465;51.560;14.368;2023-03-14T02:42:29;98042.56;;;10.04;69.50
65553;BME280;52465;51.560;14.368;2023-03-14T02:45:32;98026.16;;;9.90;69.61
65553;BME280;52465;51.560;14.368;2023-03-14T02:47:56;98059.63;;;10.13;69.45
65553;BME280;52465;51.560;14.368;2023-03-14T02:50:26;98039.94;;;10.04;69.43
65553;BME280;52465;51.560;14.368;2023-03-14T02:52:54;98047.34;;;10.14;69.57
65553;BME280;52465;51.560;14.368;2023-03-14T02:55:21;98043.94;;;10.13;69.77
65553;BME280;52465;51.560;14.368;2023-03-14T02:57:46;98029.50;;;10.04;69.36
65553;BME280;52465;51.560;14.368;2023-03-14T03:00:12;98043.19;;;10.06;69.64
65553;BME280;52465;51.560;14.368;2023-03-14T03:02:38;98050.41;;;10.04;69.25
65553;BME280;52465;51.560;14.368;2023-03-14T03:05:03;98064.84;;;10.13;69.35
65553;BME280;52465;51.560;14.368;2023-03-14T03:07:29;98056.03;;;10.07;69.48
65553;BME280;52465;51.560;14.368;2023-03-14T03:09:54;98056.00;;;10.14;69.28
65553;BME280;52465;51.560;14.368;2023-03-14T03:12:19;98054.00;;;10.10;69.41
65553;BME280;52465;51.560;14.368;2023-03-14T03:14:45;98033.91;;;10.03;69.46
65553;BME280;52465;51.560;14.368;2023-03-14T03:17:11;98040.59;;;9.93;69.58
65553;BME280;52465;51.560;14.368;2023-03-14T03:19:36;98045.56;;;10.07;69.47
65553;BME280;52465;51.560;14.368;2023-03-14T03:22:01;98045.19;;;10.11;69.56
65553;BME280;52465;51.560;14.368;2023-03-14T03:24:27;98053.59;;;10.13;69.61
65553;BME280;52465;51.560;14.368;2023-03-14T03:26:53;98020.66;;;9.98;69.63
65553;BME280;52465;51.560;14.368;2023-03-14T03:29:18;97990.59;;;9.83;69.36
65553;BME280;52465;51.560;14.368;2023-03-14T03:31:44;98037.13;;;10.12;69.54
65553;BME280;52465;51.560;14.368;2023-03-14T03:34:11;98036.13;;;10.06;69.53
65553;BME280;52465;51.560;14.368;2023-03-14T03:36:58;97988.56;;;9.85;69.53
65553;BME280;52465;51.560;14.368;2023-03-14T03:39:23;98039.72;;;10.12;69.53
65553;BME280;52465;51.560;14.368;2023-03-14T03:41:49;98037.91;;;10.13;69.47
65553;BME280;52465;51.560;14.368;2023-03-14T03:44:14;98010.25;;;9.92;69.51
65553;BME280;52465;51.560;14.368;2023-03-14T03:46:40;98035.50;;;10.11;69.33
65553;BME280;52465;51.560;14.368;2023-03-14T03:49:05;97993.81;;;9.85;69.56
65553;BME280;52465;51.560;14.368;2023-03-14T03:51:31;97986.13;;;9.90;69.44
65553;BME280;52465;51.560;14.368;2023-03-14T03:53:56;98010.19;;;10.12;69.34
65553;BME280;52465;51.560;14.368;2023-03-14T03:56:22;97865.84;;;9.20;69.77
65553;BME280;52465;51.560;14.368;2023-03-14T03:58:47;97969.34;;;9.72;69.40
65553;BME280;52465;51.560;14.368;2023-03-14T04:01:13;98023.25;;;10.12;69.43
65553;BME280;52465;51.560;14.368;2023-03-14T04:03:38;98015.44;;;10.05;69.80
65553;BME280;52465;51.560;14.368;2023-03-14T04:06:06;98030.88;;;10.13;69.42
65553;BME280;52465;51.560;14.368;2023-03-14T04:08:32;97987.97;;;9.89;69.40
65553;BME280;52465;51.560;14.368;2023-03-14T04:10:59;98000.19;;;9.95;69.43
65553;BME280;52465;51.560;14.368;2023-03-14T04:13:25;97969.69;;;9.83;69.41
65553;BME280;52465;51.560;14.368;2023-03-14T04:15:52;97984.91;;;9.92;69.60
65553;BME280;52465;51.560;14.368;2023-03-14T04:18:18;98019.03;;;10.11;69.72
65553;BME280;52465;51.560;14.368;2023-03-14T04:20:44;98014.44;;;10.06;69.22
65553;BME280;52465;51.560;14.368;2023-03-14T04:23:09;98002.00;;;9.95;69.63
65553;BME280;52465;51.560;14.368;2023-03-14T04:25:35;97990.59;;;9.83;69.36
65553;BME280;52465;51.560;14.368;2023-03-14T04:28:01;97984.91;;;9.92;69.36
65553;BME280;52465;51.560;14.368;2023-03-14T04:30:45;98010.38;;;10.10;69.53
65553;BME280;52465;51.560;14.368;2023-03-14T04:33:10;97989.56;;;9.90;69.70
65553;BME280;52465;51.560;14.368;2023-03-14T04:35:38;98029.50;;;10.04;69.53
65553;BME280;52465;51.560;14.368;2023-03-14T04:38:03;97990.56;;;9.89;69.80
65553;BME280;52465;51.560;14.368;2023-03-14T04:40:32;97997.53;;;10.02;69.50
65553;BME280;52465;51.560;14.368;2023-03-14T04:42:57;97983.72;;;9.95;69.46
65553;BME280;52465;51.560;14.368;2023-03-14T04:45:23;97979.69;;;9.99;69.27
65553;BME280;52465;51.560;14.368;2023-03-14T04:47:56;97991.13;;;9.98;69.31
65553;BME280;52465;51.560;14.368;2023-03-14T04:50:22;98016.41;;;10.11;69.53
65553;BME280;52465;51.560;14.368;2023-03-14T04:52:47;98012.19;;;10.10;69.43
65553;BME280;52465;51.560;14.368;2023-03-14T04:55:13;98015.78;;;10.15;69.54
65553;BME280;52465;51.560;14.368;2023-03-14T04:57:41;98011.56;;;10.14;69.58
65553;BME280;52465;51.560;14.368;2023-03-14T05:00:07;97999.75;;;10.05;69.56
65553;BME280;52465;51.560;14.368;2023-03-14T05:02:33;98004.72;;;10.13;69.60
65553;BME280;52465;51.560;14.368;2023-03-14T05:04:59;97980.13;;;9.89;69.55
65553;BME280;52465;51.560;14.368;2023-03-14T05:07:24;98003.53;;;10.09;69.87
65553;BME280;52465;51.560;14.368;2023-03-14T05:09:49;97962.66;;;9.83;69.80
65553;BME280;52465;51.560;14.368;2023-03-14T05:12:15;97969.84;;;9.94;69.30
65553;BME280;52465;51.560;14.368;2023-03-14T05:14:59;97989.28;;;10.05;69.56
65553;BME280;52465;51.560;14.368;2023-03-14T05:17:26;97946.97;;;9.83;69.47
65553;BME280;52465;51.560;14.368;2023-03-14T05:19:51;97983.84;;;10.06;69.96
65553;BME280;52465;51.560;14.368;2023-03-14T05:22:16;97981.47;;;10.05;69.87
65553;BME280;52465;51.560;14.368;2023-03-14T05:24:42;97949.78;;;9.81;69.55
65553;BME280;52465;51.560;14.368;2023-03-14T05:27:07;97955.63;;;9.84;69.45
65553;BME280;52465;51.560;14.368;2023-03-14T05:29:33;97986.25;;;10.08;69.82
65553;BME280;52465;51.560;14.368;2023-03-14T05:31:58;97969.81;;;10.01;69.71
65553;BME280;52465;51.560;14.368;2023-03-14T05:34:24;97975.63;;;10.03;69.59
65553;BME280;52465;51.560;14.368;2023-03-14T05:36:49;97978.22;;;10.03;69.84
65553;BME280;52465;51.560;14.368;2023-03-14T05:39:14;97979.47;;;10.00;69.65
65553;BME280;52465;51.560;14.368;2023-03-14T05:41:40;97986.47;;;10.06;69.62
65553;BME280;52465;51.560;14.368;2023-03-14T05:44:05;97983.28;;;10.04;69.73
65553;BME280;52465;51.560;14.368;2023-03-14T05:46:30;97955.78;;;9.89;69.57
65553;BME280;52465;51.560;14.368;2023-03-14T05:48:57;97973.44;;;10.00;69.63
65553;BME280;52465;51.560;14.368;2023-03-14T05:51:23;97988.69;;;10.03;69.56
65553;BME280;52465;51.560;14.368;2023-03-14T05:53:48;97990.09;;;10.05;69.59
65553;BME280;52465;51.560;14.368;2023-03-14T05:56:14;97980.44;;;10.06;69.70
65553;BME280;52465;51.560;14.368;2023-03-14T05:58:40;97986.47;;;10.06;69.55
65553;BME280;52465;51.560;14.368;2023-03-14T06:01:06;97948.34;;;9.86;69.25
65553;BME280;52465;51.560;14.368;2023-03-14T06:03:32;97984.88;;;10.05;69.41
65553;BME280;52465;51.560;14.368;2023-03-14T06:05:58;97979.03;;;10.03;69.38
65553;BME280;52465;51.560;14.368;2023-03-14T06:08:24;97989.28;;;10.05;69.61
65553;BME280;52465;51.560;14.368;2023-03-14T06:10:50;97979.25;;;10.02;69.41
65553;BME280;52465;51.560;14.368;2023-03-14T06:13:16;97994.75;;;9.97;69.64
65553;BME280;52465;51.560;14.368;2023-03-14T06:15:42;97952.25;;;9.76;69.78
65553;BME280;52465;51.560;14.368;2023-03-14T06:18:08;97971.22;;;9.97;69.61
65553;BME280;52465;51.560;14.368;2023-03-14T06:20:37;97983.09;;;9.99;69.88
65553;BME280;52465;51.560;14.368;2023-03-14T06:23:07;97997.94;;;10.05;69.61
65553;BME280;52465;51.560;14.368;2023-03-14T06:25:33;97993.91;;;10.03;69.58
65553;BME280;52465;51.560;14.368;2023-03-14T06:27:59;97986.94;;;9.90;69.63
65553;BME280;52465;51.560;14.368;2023-03-14T06:30:25;98004.38;;;10.03;69.68
65553;BME280;52465;51.560;14.368;2023-03-14T06:32:50;98007.78;;;10.03;69.66
65553;BME280;52465;51.560;14.368;2023-03-14T06:35:16;97973.72;;;9.78;69.58
65553;BME280;52465;51.560;14.368;2023-03-14T06:37:42;98014.81;;;10.03;70.02
65553;BME280;52465;51.560;14.368;2023-03-14T06:40:09;98017.66;;;10.01;69.52
65553;BME280;52465;51.560;14.368;2023-03-14T06:42:35;98021.66;;;10.04;69.66
65553;BME280;52465;51.560;14.368;2023-03-14T06:45:03;98018.66;;;10.00;69.50
65553;BME280;52465;51.560;14.368;2023-03-14T06:47:29;98018.47;;;10.02;69.57
65553;BME280;52465;51.560;14.368;2023-03-14T06:49:55;98004.81;;;10.00;69.43
65553;BME280;52465;51.560;14.368;2023-03-14T06:52:20;98011.19;;;10.04;69.56
65553;BME280;52465;51.560;14.368;2023-03-14T06:54:46;98022.25;;;10.06;69.49
65553;BME280;52465;51.560;14.368;2023-03-14T06:57:14;97966.09;;;9.70;69.39
65553;BME280;52465;51.560;14.368;2023-03-14T06:59:39;97998.63;;;9.88;69.58
65553;BME280;52465;51.560;14.368;2023-03-14T07:02:10;98033.53;;;10.06;69.67
65553;BME280;52465;51.560;14.368;2023-03-14T07:04:36;98030.72;;;10.01;69.56
65553;BME280;52465;51.560;14.368;2023-03-14T07:07:01;98044.38;;;10.03;69.42
65553;BME280;52465;51.560;14.368;2023-03-14T07:09:26;98046.41;;;10.01;69.48
65553;BME280;52465;51.560;14.368;2023-03-14T07:11:52;98042.78;;;10.02;69.38
65553;BME280;52465;51.560;14.368;2023-03-14T07:14:17;98045.59;;;10.01;69.50
65553;BME280;52465;51.560;14.368;2023-03-14T07:16:43;98039.44;;;9.89;69.36
65553;BME280;52465;51.560;14.368;2023-03-14T07:19:08;98048.22;;;10.01;69.72
65553;BME280;52465;51.560;14.368;2023-03-14T07:21:33;98040.78;;;9.98;69.29
65553;BME280;52465;51.560;14.368;2023-03-14T07:24:00;98037.94;;;10.06;69.60
65553;BME280;52465;51.560;14.368;2023-03-14T07:26:25;97995.25;;;9.74;69.12
65553;BME280;52465;51.560;14.368;2023-03-14T07:28:51;98001.44;;;9.79;69.25
65553;BME280;52465;51.560;14.368;2023-03-14T07:31:16;98008.28;;;9.80;69.59
65553;BME280;52465;51.560;14.368;2023-03-14T07:33:42;98013.28;;;9.89;69.30
65553;BME280;52465;51.560;14.368;2023-03-14T07:36:07;98046.56;;;10.13;69.36
65553;BME280;52465;51.560;14.368;2023-03-14T07:38:33;98032.91;;;10.11;69.44
65553;BME280;52465;51.560;14.368;2023-03-14T07:41:01;98030.06;;;10.13;69.19
65553;BME280;52465;51.560;14.368;2023-03-14T07:43:31;98036.69;;;10.15;69.16
65553;BME280;52465;51.560;14.368;2023-03-14T07:45:57;98020.22;;;10.08;69.25
65553;BME280;52465;51.560;14.368;2023-03-14T07:48:22;98027.69;;;10.11;69.37
65553;BME280;52465;51.560;14.368;2023-03-14T07:50:51;98021.66;;;10.04;69.48
65553;BME280;52465;51.560;14.368;2023-03-14T07:53:17;98046.34;;;10.15;69.33
65553;BME280;52465;51.560;14.368;2023-03-14T07:55:42;97992.19;;;9.84;69.56
65553;BME280;52465;51.560;14.368;2023-03-14T07:58:08;98021.66;;;10.04;69.25
65553;BME280;52465;51.560;14.368;2023-03-14T08:00:33;97983.75;;;9.81;69.11
65553;BME280;52465;51.560;14.368;2023-03-14T08:02:59;98022.84;;;10.08;69.22
65553;BME280;52465;51.560;14.368;2023-03-14T08:05:24;98026.44;;;10.14;69.20
65553;BME280;52465;51.560;14.368;2023-03-14T08:07:50;98010.97;;;10.12;69.73
65553;BME280;52465;51.560;14.368;2023-03-14T08:10:16;98000.34;;;10.07;69.61
65553;BME280;52465;51.560;14.368;2023-03-14T08:12:50;97963.25;;;9.85;69.41
65553;BME280;52465;51.560;14.368;2023-03-14T08:15:16;98017.41;;;10.16;69.47
65553;BME280;52465;51.560;14.368;2023-03-14T08:17:41;98018.19;;;10.17;69.29
65553;BME280;52465;51.560;14.368;2023-03-14T08:20:08;98005.16;;;10.03;69.38
65553;BME280;52465;51.560;14.368;2023-03-14T08:22:36;98022.63;;;10.16;69.32
65553;BME280;52465;51.560;14.368;2023-03-14T08:25:01;98010.00;;;10.06;69.26
65553;BME280;52465;51.560;14.368;2023-03-14T08:27:45;98015.78;;;10.15;69.22
65553;BME280;52465;51.560;14.368;2023-03-14T08:30:12;98000.13;;;10.08;69.30
65553;BME280;52465;51.560;14.368;2023-03-14T08:32:38;98040.50;;;10.19;69.65
65553;BME280;52465;51.560;14.368;2023-03-14T08:35:05;98014.59;;;10.11;69.36
65553;BME280;52465;51.560;14.368;2023-03-14T08:37:32;98013.41;;;10.07;68.79
65553;BME280;52465;51.560;14.368;2023-03-14T08:39:57;98014.00;;;10.09;69.26
65553;BME280;52465;51.560;14.368;2023-03-14T08:42:23;98035.47;;;10.18;69.22
65553;BME280;52465;51.560;14.368;2023-03-14T08:44:50;98020.59;;;10.18;69.28
65553;BME280;52465;51.560;14.368;2023-03-14T08:47:16;97977.28;;;9.91;69.56
65553;BME280;52465;51.560;14.368;2023-03-14T08:49:42;98019.63;;;10.13;69.29
65553;BME280;52465;51.560;14.368;2023-03-14T08:52:09;98024.59;;;10.21;69.28
65553;BME280;52465;51.560;14.368;2023-03-14T08:54:34;97988.19;;;9.88;69.09
65553;BME280;52465;51.560;14.368;2023-03-14T08:56:59;98027.41;;;10.19;69.17
65553;BME280;52465;51.560;14.368;2023-03-14T08:59:25;98033.88;;;10.23;69.27
65553;BME280;52465;51.560;14.368;2023-03-14T09:01:50;98035.47;;;10.24;69.44
65553;BME280;52465;51.560;14.368;2023-03-14T09:04:16;98021.81;;;10.16;69.29
65553;BME280;52465;51.560;14.368;2023-03-14T09:06:41;98039.69;;;10.25;69.19
65553;BME280;52465;51.560;14.368;2023-03-14T09:09:07;98029.03;;;10.20;69.11
65553;BME280;52465;51.560;14.368;2023-03-14T09:11:34;98027.03;;;10.22;69.12
65553;BME280;52465;51.560;14.368;2023-03-14T09:13:59;98022.19;;;10.26;69.17
65553;BME280;52465;51.560;14.368;2023-03-14T09:16:28;98028.66;;;10.23;68.88
65553;BME280;52465;51.560;14.368;2023-03-14T09:18:53;98029.03;;;10.20;68.94
65553;BME280;52465;51.560;14.368;2023-03-14T09:21:20;98034.69;;;10.24;69.12
65553;BME280;52465;51.560;14.368;2023-03-14T09:23:46;98015.38;;;10.18;69.21
65553;BME280;52465;51.560;14.368;2023-03-14T09:26:11;98013.75;;;10.17;69.38
65553;BME280;52465;51.560;14.368;2023-03-14T09:28:37;98029.44;;;10.24;69.33
65553;BME280;52465;51.560;14.368;2023-03-14T09:31:09;98016.97;;;10.19;69.13
65553;BME280;52465;51.560;14.368;2023-03-14T09:33:36;98033.44;;;10.33;69.12
65553;BME280;52465;51.560;14.368;2023-03-14T09:36:06;98035.88;;;10.28;69.16
65553;BME280;52465;51.560;14.368;2023-03-14T09:38:32;98039.66;;;10.32;69.18
65553;BME280;52465;51.560;14.368;2023-03-14T09:41:01;98005.31;;;10.15;69.04
65553;BME280;52465;51.560;14.368;2023-03-14T09:43:31;98024.19;;;10.30;68.94
65553;BME280;52465;51.560;14.368;2023-03-14T09:45:58;98007.72;;;10.23;68.90
65553;BME280;52465;51.560;14.368;2023-03-14T09:48:31;98034.00;;;10.35;69.06
65553;BME280;52465;51.560;14.368;2023-03-14T09:50:59;98032.41;;;10.34;68.88
65553;BME280;52465;51.560;14.368;2023-03-14T09:56:28;97983.72;;;9.95;68.68
65553;BME280;52465;51.560;14.368;2023-03-14T09:59:00;98038.44;;;10.35;68.76
65553;BME280;52465;51.560;14.368;2023-03-14T10:01:28;98045.84;;;10.38;69.17
65553;BME280;52465;51.560;14.368;2023-03-14T10:03:56;98049.09;;;10.40;68.83
65553;BME280;52465;51.560;14.368;2023-03-14T10:06:25;98045.84;;;10.38;68.91
65553;BME280;52465;51.560;14.368;2023-03-14T10:08:52;98051.50;;;10.41;69.02
65553;BME280;52465;51.560;14.368;2023-03-14T10:11:19;98041.91;;;10.28;68.61
65553;BME280;52465;51.560;14.368;2023-03-14T10:14:03;98013.81;;;10.11;68.68
65553;BME280;52465;51.560;14.368;2023-03-14T10:16:32;98063.19;;;10.39;68.87
65553;BME280;52465;51.560;14.368;2023-03-14T10:19:17;98059.13;;;10.43;69.09
65553;BME280;52465;51.560;14.368;2023-03-14T10:21:49;98013.34;;;10.20;68.88
65553;BME280;52465;51.560;14.368;2023-03-14T10:24:22;98051.88;;;10.45;68.78
65553;BME280;52465;51.560;14.368;2023-03-14T10:26:49;98064.75;;;10.46;68.88
65553;BME280;52465;51.560;14.368;2023-03-14T10:29:17;98054.69;;;10.43;68.88
65553;BME280;52465;51.560;14.368;2023-03-14T10:31:49;98056.72;;;10.41;68.98
65553;BME280;52465;51.560;14.368;2023-03-14T10:34:21;98064.75;;;10.46;68.93
65553;BME280;52465;51.560;14.368;2023-03-14T10:36:52;98031.25;;;10.23;68.70
65553;BME280;52465;51.560;14.368;2023-03-14T10:41:52;98063.72;;;10.47;68.75
65553;BME280;52465;51.560;14.368;2023-03-14T10:44:21;98042.25;;;10.39;69.05
65553;BME280;52465;51.560;14.368;2023-03-14T10:47:00;98061.91;;;10.48;68.87
65553;BME280;52465;51.560;14.368;2023-03-14T10:49:29;98057.69;;;10.47;69.09
65553;BME280;52465;51.560;14.368;2023-03-14T10:51:55;98064.53;;;10.48;68.71
65553;BME280;52465;51.560;14.368;2023-03-14T10:54:29;98061.50;;;10.51;68.65
65553;BME280;52465;51.560;14.368;2023-03-14T10:56:59;98030.81;;;10.33;68.86
65553;BME280;52465;51.560;14.368;2023-03-14T10:59:25;98052.84;;;10.50;68.74
65553;BME280;52465;51.560;14.368;2023-03-14T11:07:17;98049.22;;;10.51;68.80
65553;BME280;52465;51.560;14.368;2023-03-14T11:15:03;98033.19;;;10.41;68.77
65553;BME280;52465;51.560;14.368;2023-03-14T11:17:53;98032.38;;;10.41;68.46
65553;BME280;52465;51.560;14.368;2023-03-14T11:20:45;98046.59;;;10.51;68.79
65553;BME280;52465;51.560;14.368;2023-03-14T11:23:21;98011.31;;;10.29;68.72
65553;BME280;52465;51.560;14.368;2023-03-14T11:25:57;98050.03;;;10.52;68.60
65553;BME280;52465;51.560;14.368;2023-03-14T11:28:36;98035.53;;;10.49;68.65
65553;BME280;52465;51.560;14.368;2023-03-14T11:31:29;98029.34;;;10.44;68.56
65553;BME280;52465;51.560;14.368;2023-03-14T11:34:01;98041.16;;;10.53;68.48
65553;BME280;52465;51.560;14.368;2023-03-14T11:36:31;98026.75;;;10.44;68.57
65553;BME280;52465;51.560;14.368;2023-03-14T11:38:59;98017.88;;;10.45;68.98
65553;BME280;52465;51.560;14.368;2023-03-14T11:43:56;98021.63;;;10.55;68.44
65553;BME280;52465;51.560;14.368;2023-03-14T11:46:26;98022.63;;;10.54;68.99
65553;BME280;52465;51.560;14.368;2023-03-14T11:49:06;98027.66;;;10.56;68.62
65553;BME280;52465;51.560;14.368;2023-03-14T11:51:39;98032.69;;;10.57;68.69
65553;BME280;52465;51.560;14.368;2023-03-14T11:56:51;98022.44;;;10.56;68.61
65553;BME280;52465;51.560;14.368;2023-03-14T11:59:23;97993.78;;;10.36;68.56
65553;BME280;52465;51.560;14.368;2023-03-14T12:05:14;98018.59;;;10.58;68.64
65553;BME280;52465;51.560;14.368;2023-03-14T12:10:45;98005.09;;;10.55;68.47
65553;BME280;52465;51.560;14.368;2023-03-14T12:13:13;98010.50;;;10.60;68.50
65553;BME280;52465;51.560;14.368;2023-03-14T12:15:46;98003.09;;;10.57;68.80
65553;BME280;52465;51.560;14.368;2023-03-14T12:18:21;98002.31;;;10.56;68.63
65553;BME280;52465;51.560;14.368;2023-03-14T12:20:54;97988.66;;;10.48;68.55
65553;BME280;52465;51.560;14.368;2023-03-14T12:23:20;97980.59;;;10.49;68.49
65553;BME280;52465;51.560;14.368;2023-03-14T12:25:46;97987.47;;;10.50;68.35
65553;BME280;52465;51.560;14.368;2023-03-14T12:28:30;97996.44;;;10.61;68.45
65553;BME280;52465;51.560;14.368;2023-03-14T12:30:56;97964.50;;;10.52;68.62
65553;BME280;52465;51.560;14.368;2023-03-14T12:33:28;97974.31;;;10.57;68.41
65553;BME280;52465;51.560;14.368;2023-03-14T12:35:59;97983.38;;;10.54;68.35
65553;BME280;52465;51.560;14.368;2023-03-14T12:38:58;97988.16;;;10.64;68.49
65553;BME280;52465;51.560;14.368;2023-03-14T12:49:43;97978.47;;;10.65;68.64
65553;BME280;52465;51.560;14.368;2023-03-14T12:52:22;97978.88;;;10.68;68.24
65553;BME280;52465;51.560;14.368;2023-03-14T12:57:33;97974.66;;;10.67;68.31
65553;BME280;52465;51.560;14.368;2023-03-14T13:00:13;97961.97;;;10.64;68.55
65553;BME280;52465;51.560;14.368;2023-03-14T13:11:19;97958.72;;;10.69;68.50
65553;BME280;52465;51.560;14.368;2023-03-14T13:13:48;97947.88;;;10.65;68.68
65553;BME280;52465;51.560;14.368;2023-03-14T13:16:18;97964.34;;;10.72;68.40
65553;BME280;52465;51.560;14.368;2023-03-14T13:18:46;97912.63;;;10.43;68.21
65553;BME280;52465;51.560;14.368;2023-03-14T13:21:18;97968.56;;;10.73;68.37
65553;BME280;52465;51.560;14.368;2023-03-14T13:24:03;97958.09;;;10.73;68.27
65553;BME280;52465;51.560;14.368;2023-03-14T13:26:35;97964.94;;;10.74;68.29
65553;BME280;52465;51.560;14.368;2023-03-14T13:29:16;97967.78;;;10.73;68.30
65553;BME280;52465;51.560;14.368;2023-03-14T13:31:47;97956.91;;;10.69;68.34
65553;BME280;52465;51.560;14.368;2023-03-14T13:34:13;97961.28;;;10.75;68.33
65553;BME280;52465;51.560;14.368;2023-03-14T13:36:38;97945.53;;;10.57;68.26
65553;BME280;52465;51.560;14.368;2023-03-14T13:39:12;97953.13;;;10.65;68.28
65553;BME280;52465;51.560;14.368;2023-03-14T13:41:41;97968.81;;;10.65;68.58
65553;BME280;52465;51.560;14.368;2023-03-14T13:44:13;97969.59;;;10.72;68.57
65553;BME280;52465;51.560;14.368;2023-03-14T13:46:39;97961.34;;;10.69;68.53
65553;BME280;52465;51.560;14.368;2023-03-14T13:49:09;97923.25;;;10.48;68.44
65553;BME280;52465;51.560;14.368;2023-03-14T13:51:38;97955.53;;;10.67;68.25
65553;BME280;52465;51.560;14.368;2023-03-14T13:54:16;97951.53;;;10.64;68.31